sensor_id;sensor_type;location;lat;lon;timestamp;pressure;altitude;pressure_sealevel;temperature;humidity
21877;BME280;11103;43.788;23.710;2023-05-01T00:02:14;-14922.56;;;-144.67;100.00
21877;BME280;11103;43.788;23.710;2023-05-01T00:04:39;-14922.56;;;-144.67;100.00
21877;BME280;11103;43.788;23.710;2023-05-01T00:07:04;-14922.56;;;-144.67;100.00
21877;BME280;11103;43.788;23.710;2023-05-01T00:09:30;-14922.56;;;-144.67;100.00
21877;BME280;11103;43.788;23.710;2023-05-01T00:11:56;-14922.56;;;-144.67;100.00
21877;BME280;11103;43.788;23.710;2023-05-01T00:14:21;-14922.56;;;-144.67;100.00
21877;BME280;11103;43.788;23.710;2023-05-01T00:16:47;-14922.56;;;-144.67;100.00
21877;BME280;11103;43.788;23.710;2023-05-01T00:19:12;-14922.56;;;-144.67;100.00
21877;BME280;11103;43.788;23.710;2023-05-01T00:21:43;-14922.56;;;-144.67;100.00
21877;BME280;11103;43.788;23.710;2023-05-01T00:24:09;-14922.56;;;-144.67;100.00
21877;BME280;11103;43.788;23.710;2023-05-01T00:26:35;-14922.56;;;-144.67;100.00
21877;BME280;11103;43.788;23.710;2023-05-01T00:29:00;-14922.56;;;-144.67;100.00
21877;BME280;11103;43.788;23.710;2023-05-01T00:31:26;-14922.56;;;-144.67;100.00
21877;BME280;11103;43.788;23.710;2023-05-01T00:33:51;-14922.56;;;-144.67;100.00
21877;BME280;11103;43.788;23.710;2023-05-01T00:36:17;-14922.56;;;-144.67;100.00
21877;BME280;11103;43.788;23.710;2023-05-01T00:38:42;-14922.56;;;-144.67;100.00
21877;BME280;11103;43.788;23.710;2023-05-01T00:41:08;-14922.56;;;-144.67;100.00
21877;BME280;11103;43.788;23.710;2023-05-01T00:43:33;-14922.56;;;-144.67;100.00
21877;BME280;11103;43.788;23.710;2023-05-01T00:45:59;-14922.56;;;-144.67;100.00
21877;BME280;11103;43.788;23.710;2023-05-01T00:48:25;-14922.56;;;-144.67;100.00
21877;BME280;11103;43.788;23.710;2023-05-01T00:50:51;-14922.56;;;-144.67;100.00
21877;BME280;11103;43.788;23.710;2023-05-01T00:53:19;-14922.56;;;-144.67;100.00
21877;BME280;11103;43.788;23.710;2023-05-01T00:55:45;-14922.56;;;-144.67;100.00
21877;BME280;11103;43.788;23.710;2023-05-01T00:58:11;-14922.56;;;-144.67;100.00
21877;BME280;11103;43.788;23.710;2023-05-01T01:00:37;-14922.56;;;-144.67;100.00
21877;BME280;11103;43.788;23.710;2023-05-01T01:03:03;-14922.56;;;-144.67;100.00
21877;BME280;11103;43.788;23.710;2023-05-01T01:05:31;-14922.56;;;-144.67;100.00
21877;BME280;11103;43.788;23.710;2023-05-01T01:11:11;-14922.56;;;-144.67;100.00
21877;BME280;11103;43.788;23.710;2023-05-01T01:16:17;-14922.56;;;-144.67;100.00
21877;BME280;11103;43.788;23.710;2023-05-01T01:21:23;-14922.56;;;-144.67;100.00
21877;BME280;11103;43.788;23.710;2023-05-01T01:32:58;-14922.56;;;-144.67;100.00
21877;BME280;11103;43.788;23.710;2023-05-01T01:35:27;-14922.56;;;-144.67;100.00
21877;BME280;11103;43.788;23.710;2023-05-01T01:38:00;-14922.56;;;-144.67;100.00
21877;BME280;11103;43.788;23.710;2023-05-01T01:43:52;-14922.56;;;-144.67;100.00
21877;BME280;11103;43.788;23.710;2023-05-01T01:46:20;-14922.56;;;-144.67;100.00
21877;BME280;11103;43.788;23.710;2023-05-01T01:48:48;-14922.56;;;-144.67;100.00
21877;BME280;11103;43.788;23.710;2023-05-01T01:51:17;-14922.56;;;-144.67;100.00
21877;BME280;11103;43.788;23.710;2023-05-01T01:53:47;-14922.56;;;-144.67;100.00
21877;BME280;11103;43.788;23.710;2023-05-01T01:56:15;-14922.56;;;-144.67;100.00
21877;BME280;11103;43.788;23.710;2023-05-01T01:58:43;-14922.56;;;-144.67;100.00
21877;BME280;11103;43.788;23.710;2023-05-01T02:01:12;-14922.56;;;-144.67;100.00
21877;BME280;11103;43.788;23.710;2023-05-01T02:03:40;-14922.56;;;-144.67;100.00
21877;BME280;11103;43.788;23.710;2023-05-01T02:06:07;-14922.56;;;-144.67;100.00
21877;BME280;11103;43.788;23.710;2023-05-01T02:08:34;-14922.56;;;-144.67;100.00
21877;BME280;11103;43.788;23.710;2023-05-01T02:11:00;-14922.56;;;-144.67;100.00
21877;BME280;11103;43.788;23.710;2023-05-01T02:13:28;-14922.56;;;-144.67;100.00
21877;BME280;11103;43.788;23.710;2023-05-01T02:15:57;-14922.56;;;-144.67;100.00
21877;BME280;11103;43.788;23.710;2023-05-01T02:18:25;-14922.56;;;-144.67;100.00
21877;BME280;11103;43.788;23.710;2023-05-01T02:20:52;-14922.56;;;-144.67;100.00
21877;BME280;11103;43.788;23.710;2023-05-01T02:23:17;-14922.56;;;-144.67;100.00
21877;BME280;11103;43.788;23.710;2023-05-01T02:25:44;-14922.56;;;-144.67;100.00
21877;BME280;11103;43.788;23.710;2023-05-01T02:28:12;-14922.56;;;-144.67;100.00
21877;BME280;11103;43.788;23.710;2023-05-01T02:30:39;-14922.56;;;-144.67;100.00
21877;BME280;11103;43.788;23.710;2023-05-01T02:33:07;-14922.56;;;-144.67;100.00
21877;BME280;11103;43.788;23.710;2023-05-01T02:35:44;-14922.56;;;-144.67;100.00
21877;BME280;11103;43.788;23.710;2023-05-01T02:38:12;-14922.56;;;-144.67;100.00
21877;BME280;11103;43.788;23.710;2023-05-01T02:40:40;-14922.56;;;-144.67;100.00
21877;BME280;11103;43.788;23.710;2023-05-01T02:43:09;-14922.56;;;-144.67;100.00
21877;BME280;11103;43.788;23.710;2023-05-01T02:45:37;-14922.56;;;-144.67;100.00
21877;BME280;11103;43.788;23.710;2023-05-01T02:48:05;-14922.56;;;-144.67;100.00
21877;BME280;11103;43.788;23.710;2023-05-01T02:50:33;-14922.56;;;-144.67;100.00
21877;BME280;11103;43.788;23.710;2023-05-01T02:52:59;-14922.56;;;-144.67;100.00
21877;BME280;11103;43.788;23.710;2023-05-01T02:55:25;-14922.56;;;-144.67;100.00
21877;BME280;11103;43.788;23.710;2023-05-01T02:57:51;-14922.56;;;-144.67;100.00
21877;BME280;11103;43.788;23.710;2023-05-01T03:00:16;-14922.56;;;-144.67;100.00
21877;BME280;11103;43.788;23.710;2023-05-01T03:02:43;-14922.56;;;-144.67;100.00
21877;BME280;11103;43.788;23.710;2023-05-01T03:05:08;-14922.56;;;-144.67;100.00
21877;BME280;11103;43.788;23.710;2023-05-01T03:07:34;-14922.56;;;-144.67;100.00
21877;BME280;11103;43.788;23.710;2023-05-01T03:10:04;-14922.56;;;-144.67;100.00
21877;BME280;11103;43.788;23.710;2023-05-01T03:12:30;-14922.56;;;-144.67;100.00
21877;BME280;11103;43.788;23.710;2023-05-01T03:14:55;-14922.56;;;-144.67;100.00
21877;BME280;11103;43.788;23.710;2023-05-01T03:17:21;-14922.56;;;-144.67;100.00
21877;BME280;11103;43.788;23.710;2023-05-01T03:19:47;-14922.56;;;-144.67;100.00
21877;BME280;11103;43.788;23.710;2023-05-01T03:22:13;-14922.56;;;-144.67;100.00
21877;BME280;11103;43.788;23.710;2023-05-01T03:24:39;-14922.56;;;-144.67;100.00
21877;BME280;11103;43.788;23.710;2023-05-01T03:27:04;-14922.56;;;-144.67;100.00
21877;BME280;11103;43.788;23.710;2023-05-01T03:29:31;-14922.56;;;-144.67;100.00
21877;BME280;11103;43.788;23.710;2023-05-01T03:31:58;-14922.56;;;-144.67;100.00
21877;BME280;11103;43.788;23.710;2023-05-01T03:34:23;-14922.56;;;-144.67;100.00
21877;BME280;11103;43.788;23.710;2023-05-01T03:36:49;-14922.56;;;-144.67;100.00
21877;BME280;11103;43.788;23.710;2023-05-01T03:39:14;-14922.56;;;-144.67;100.00
21877;BME280;11103;43.788;23.710;2023-05-01T03:41:40;-14922.56;;;-144.67;100.00
21877;BME280;11103;43.788;23.710;2023-05-01T03:44:05;-14922.56;;;-144.67;100.00
21877;BME280;11103;43.788;23.710;2023-05-01T03:46:30;-14922.56;;;-144.67;100.00
21877;BME280;11103;43.788;23.710;2023-05-01T03:48:56;-14922.56;;;-144.67;100.00
21877;BME280;11103;43.788;23.710;2023-05-01T03:51:21;-14922.56;;;-144.67;100.00
21877;BME280;11103;43.788;23.710;2023-05-01T03:53:46;-14922.56;;;-144.67;100.00
21877;BME280;11103;43.788;23.710;2023-05-01T03:56:12;-14922.56;;;-144.67;100.00
21877;BME280;11103;43.788;23.710;2023-05-01T03:58:37;-14922.56;;;-144.67;100.00
21877;BME280;11103;43.788;23.710;2023-05-01T04:01:03;-14922.56;;;-144.67;100.00
21877;BME280;11103;43.788;23.710;2023-05-01T04:03:28;-14922.56;;;-144.67;100.00
21877;BME280;11103;43.788;23.710;2023-05-01T04:05:54;-14922.56;;;-144.67;100.00
21877;BME280;11103;43.788;23.710;2023-05-01T04:08:19;-14922.56;;;-144.67;100.00
21877;BME280;11103;43.788;23.710;2023-05-01T04:10:45;-14922.56;;;-144.67;100.00
21877;BME280;11103;43.788;23.710;2023-05-01T04:13:10;-14922.56;;;-144.67;100.00
21877;BME280;11103;43.788;23.710;2023-05-01T04:15:37;-14922.56;;;-144.67;100.00
21877;BME280;11103;43.788;23.710;2023-05-01T04:18:03;-14922.56;;;-144.67;100.00
21877;BME280;11103;43.788;23.710;2023-05-01T04:20:28;-14922.56;;;-144.67;100.00
21877;BME280;11103;43.788;23.710;2023-05-01T04:22:54;-14922.56;;;-144.67;100.00
21877;BME280;11103;43.788;23.710;2023-05-01T04:25:19;-14922.56;;;-144.67;100.00
21877;BME280;11103;43.788;23.710;2023-05-01T04:27:45;-14922.56;;;-144.67;100.00
21877;BME280;11103;43.788;23.710;2023-05-01T04:30:11;-14922.56;;;-144.67;100.00
21877;BME280;11103;43.788;23.710;2023-05-01T04:32:36;-14922.56;;;-144.67;100.00
21877;BME280;11103;43.788;23.710;2023-05-01T04:35:02;-14922.56;;;-144.67;100.00
21877;BME280;11103;43.788;23.710;2023-05-01T04:37:29;-14922.56;;;-144.67;100.00
21877;BME280;11103;43.788;23.710;2023-05-01T04:39:54;-14922.56;;;-144.67;100.00
21877;BME280;11103;43.788;23.710;2023-05-01T04:42:20;-14922.56;;;-144.67;100.00
21877;BME280;11103;43.788;23.710;2023-05-01T04:44:45;-14922.56;;;-144.67;100.00
21877;BME280;11103;43.788;23.710;2023-05-01T04:47:12;-14922.56;;;-144.67;100.00
21877;BME280;11103;43.788;23.710;2023-05-01T04:49:37;-14922.56;;;-144.67;100.00
21877;BME280;11103;43.788;23.710;2023-05-01T04:52:03;-14922.56;;;-144.67;100.00
21877;BME280;11103;43.788;23.710;2023-05-01T04:54:28;-14922.56;;;-144.67;100.00
21877;BME280;11103;43.788;23.710;2023-05-01T04:56:54;-14922.56;;;-144.67;100.00
21877;BME280;11103;43.788;23.710;2023-05-01T04:59:19;-14922.56;;;-144.67;100.00
21877;BME280;11103;43.788;23.710;2023-05-01T05:01:44;-14922.56;;;-144.67;100.00
21877;BME280;11103;43.788;23.710;2023-05-01T05:04:10;-14922.56;;;-144.67;100.00
21877;BME280;11103;43.788;23.710;2023-05-01T05:06:35;-14922.56;;;-144.67;100.00
21877;BME280;11103;43.788;23.710;2023-05-01T05:09:01;-14922.56;;;-144.67;100.00
21877;BME280;11103;43.788;23.710;2023-05-01T05:11:26;-14922.56;;;-144.67;100.00
21877;BME280;11103;43.788;23.710;2023-05-01T05:13:52;-14922.56;;;-144.67;100.00
21877;BME280;11103;43.788;23.710;2023-05-01T05:16:17;-14922.56;;;-144.67;100.00
21877;BME280;11103;43.788;23.710;2023-05-01T05:18:42;-14922.56;;;-144.67;100.00
21877;BME280;11103;43.788;23.710;2023-05-01T05:21:08;-14922.56;;;-144.67;100.00
21877;BME280;11103;43.788;23.710;2023-05-01T05:23:35;-14922.56;;;-144.67;100.00
21877;BME280;11103;43.788;23.710;2023-05-01T05:26:00;-14922.56;;;-144.67;100.00
21877;BME280;11103;43.788;23.710;2023-05-01T05:28:27;-14922.56;;;-144.67;100.00
21877;BME280;11103;43.788;23.710;2023-05-01T05:30:53;-14922.56;;;-144.67;100.00
21877;BME280;11103;43.788;23.710;2023-05-01T05:33:19;-14922.56;;;-144.67;100.00
21877;BME280;11103;43.788;23.710;2023-05-01T05:35:45;-14922.56;;;-144.67;100.00
21877;BME280;11103;43.788;23.710;2023-05-01T05:38:10;-14922.56;;;-144.67;100.00
21877;BME280;11103;43.788;23.710;2023-05-01T05:40:36;-14922.56;;;-144.67;100.00
21877;BME280;11103;43.788;23.710;2023-05-01T05:43:01;-14922.56;;;-144.67;100.00
21877;BME280;11103;43.788;23.710;2023-05-01T05:45:27;-14922.56;;;-144.67;100.00
21877;BME280;11103;43.788;23.710;2023-05-01T05:47:53;-14922.56;;;-144.67;100.00
21877;BME280;11103;43.788;23.710;2023-05-01T05:50:18;-14922.56;;;-144.67;100.00
21877;BME280;11103;43.788;23.710;2023-05-01T05:52:44;-14922.56;;;-144.67;100.00
21877;BME280;11103;43.788;23.710;2023-05-01T05:55:09;-14922.56;;;-144.67;100.00
21877;BME280;11103;43.788;23.710;2023-05-01T05:57:35;-14922.56;;;-144.67;100.00
21877;BME280;11103;43.788;23.710;2023-05-01T06:00:02;-14922.56;;;-144.67;100.00
21877;BME280;11103;43.788;23.710;2023-05-01T06:02:30;-14922.56;;;-144.67;100.00
21877;BME280;11103;43.788;23.710;2023-05-01T06:04:56;-14922.56;;;-144.67;100.00
21877;BME280;11103;43.788;23.710;2023-05-01T06:07:22;-14922.56;;;-144.67;100.00
21877;BME280;11103;43.788;23.710;2023-05-01T06:09:48;-14922.56;;;-144.67;100.00
21877;BME280;11103;43.788;23.710;2023-05-01T06:12:13;-14922.56;;;-144.67;100.00
21877;BME280;11103;43.788;23.710;2023-05-01T06:14:38;-14922.56;;;-144.67;100.00
21877;BME280;11103;43.788;23.710;2023-05-01T06:17:05;-14922.56;;;-144.67;100.00
21877;BME280;11103;43.788;23.710;2023-05-01T06:19:31;-14922.56;;;-144.67;100.00
21877;BME280;11103;43.788;23.710;2023-05-01T06:21:56;-14922.56;;;-144.67;100.00
21877;BME280;11103;43.788;23.710;2023-05-01T06:24:22;-14922.56;;;-144.67;100.00
21877;BME280;11103;43.788;23.710;2023-05-01T06:26:47;-14922.56;;;-144.67;100.00
21877;BME280;11103;43.788;23.710;2023-05-01T06:29:12;-14922.56;;;-144.67;100.00
21877;BME280;11103;43.788;23.710;2023-05-01T06:31:38;-14922.56;;;-144.67;100.00
21877;BME280;11103;43.788;23.710;2023-05-01T06:34:03;-14922.56;;;-144.67;100.00
21877;BME280;11103;43.788;23.710;2023-05-01T06:36:29;-14922.56;;;-144.67;100.00
21877;BME280;11103;43.788;23.710;2023-05-01T06:38:55;-14922.56;;;-144.67;100.00
21877;BME280;11103;43.788;23.710;2023-05-01T06:41:21;-14922.56;;;-144.67;100.00
21877;BME280;11103;43.788;23.710;2023-05-01T06:43:46;-14922.56;;;-144.67;100.00
21877;BME280;11103;43.788;23.710;2023-05-01T06:46:12;-14922.56;;;-144.67;100.00
21877;BME280;11103;43.788;23.710;2023-05-01T06:48:38;-14922.56;;;-144.67;100.00
21877;BME280;11103;43.788;23.710;2023-05-01T06:51:03;-14922.56;;;-144.67;100.00
21877;BME280;11103;43.788;23.710;2023-05-01T06:53:29;-14922.56;;;-144.67;100.00
21877;BME280;11103;43.788;23.710;2023-05-01T06:55:54;-14922.56;;;-144.67;100.00
21877;BME280;11103;43.788;23.710;2023-05-01T06:58:20;-14922.56;;;-144.67;100.00
21877;BME280;11103;43.788;23.710;2023-05-01T07:00:45;-14922.56;;;-144.67;100.00
21877;BME280;11103;43.788;23.710;2023-05-01T07:03:10;-14922.56;;;-144.67;100.00
21877;BME280;11103;43.788;23.710;2023-05-01T07:05:37;-14922.56;;;-144.67;100.00
21877;BME280;11103;43.788;23.710;2023-05-01T07:08:04;-14922.56;;;-144.67;100.00
21877;BME280;11103;43.788;23.710;2023-05-01T07:10:30;-14922.56;;;-144.67;100.00
21877;BME280;11103;43.788;23.710;2023-05-01T07:12:56;-14922.56;;;-144.67;100.00
21877;BME280;11103;43.788;23.710;2023-05-01T07:15:21;-14922.56;;;-144.67;100.00
21877;BME280;11103;43.788;23.710;2023-05-01T07:17:48;-14922.56;;;-144.67;100.00
21877;BME280;11103;43.788;23.710;2023-05-01T07:20:14;-14922.56;;;-144.67;100.00
21877;BME280;11103;43.788;23.710;2023-05-01T07:22:41;-14922.56;;;-144.67;100.00
21877;BME280;11103;43.788;23.710;2023-05-01T07:25:07;-14922.56;;;-144.67;100.00
21877;BME280;11103;43.788;23.710;2023-05-01T07:27:32;-14922.56;;;-144.67;100.00
21877;BME280;11103;43.788;23.710;2023-05-01T07:29:59;-14922.56;;;-144.67;100.00
21877;BME280;11103;43.788;23.710;2023-05-01T07:32:25;-14922.56;;;-144.67;100.00
21877;BME280;11103;43.788;23.710;2023-05-01T07:34:50;-14922.56;;;-144.67;100.00
21877;BME280;11103;43.788;23.710;2023-05-01T07:37:16;-14922.56;;;-144.67;100.00
21877;BME280;11103;43.788;23.710;2023-05-01T07:39:43;-14922.56;;;-144.67;100.00
21877;BME280;11103;43.788;23.710;2023-05-01T07:42:08;-14922.56;;;-144.67;100.00
21877;BME280;11103;43.788;23.710;2023-05-01T07:44:33;-14922.56;;;-144.67;100.00
21877;BME280;11103;43.788;23.710;2023-05-01T07:47:03;-14922.56;;;-144.67;100.00
21877;BME280;11103;43.788;23.710;2023-05-01T07:49:29;-14922.56;;;-144.67;100.00
21877;BME280;11103;43.788;23.710;2023-05-01T07:51:59;-14922.56;;;-144.67;100.00
21877;BME280;11103;43.788;23.710;2023-05-01T07:54:24;-14922.56;;;-144.67;100.00
21877;BME280;11103;43.788;23.710;2023-05-01T07:56:49;-14922.56;;;-144.67;100.00
21877;BME280;11103;43.788;23.710;2023-05-01T07:59:15;-14922.56;;;-144.67;100.00
21877;BME280;11103;43.788;23.710;2023-05-01T08:01:40;-14922.56;;;-144.67;100.00
21877;BME280;11103;43.788;23.710;2023-05-01T08:04:06;-14922.56;;;-144.67;100.00
21877;BME280;11103;43.788;23.710;2023-05-01T08:06:32;-14922.56;;;-144.67;100.00
21877;BME280;11103;43.788;23.710;2023-05-01T08:08:57;-14922.56;;;-144.67;100.00
21877;BME280;11103;43.788;23.710;2023-05-01T08:11:23;-14922.56;;;-144.67;100.00
21877;BME280;11103;43.788;23.710;2023-05-01T08:13:49;-14922.56;;;-144.67;100.00
21877;BME280;11103;43.788;23.710;2023-05-01T08:16:14;-14922.56;;;-144.67;100.00
21877;BME280;11103;43.788;23.710;2023-05-01T08:18:40;-14922.56;;;-144.67;100.00
21877;BME280;11103;43.788;23.710;2023-05-01T08:21:05;-14922.56;;;-144.67;100.00
21877;BME280;11103;43.788;23.710;2023-05-01T08:23:31;-14922.56;;;-144.67;100.00
21877;BME280;11103;43.788;23.710;2023-05-01T08:25:56;-14922.56;;;-144.67;100.00
21877;BME280;11103;43.788;23.710;2023-05-01T08:28:22;-14922.56;;;-144.67;100.00
21877;BME280;11103;43.788;23.710;2023-05-01T08:30:47;-14922.56;;;-144.67;100.00
21877;BME280;11103;43.788;23.710;2023-05-01T08:33:16;-14922.56;;;-144.67;100.00
21877;BME280;11103;43.788;23.710;2023-05-01T08:35:42;-14922.56;;;-144.67;100.00
21877;BME280;11103;43.788;23.710;2023-05-01T08:38:07;-14922.56;;;-144.67;100.00
21877;BME280;11103;43.788;23.710;2023-05-01T08:40:35;-14922.56;;;-144.67;100.00
21877;BME280;11103;43.788;23.710;2023-05-01T08:43:02;-14922.56;;;-144.67;100.00
21877;BME280;11103;43.788;23.710;2023-05-01T08:45:32;-14922.56;;;-144.67;100.00
21877;BME280;11103;43.788;23.710;2023-05-01T08:48:11;-14922.56;;;-144.67;100.00
21877;BME280;11103;43.788;23.710;2023-05-01T08:50:38;-14922.56;;;-144.67;100.00
21877;BME280;11103;43.788;23.710;2023-05-01T08:53:04;-14922.56;;;-144.67;100.00
21877;BME280;11103;43.788;23.710;2023-05-01T08:55:31;-14922.56;;;-144.67;100.00
21877;BME280;11103;43.788;23.710;2023-05-01T08:57:58;-14922.56;;;-144.67;100.00
21877;BME280;11103;43.788;23.710;2023-05-01T09:00:24;-14922.56;;;-144.67;100.00
21877;BME280;11103;43.788;23.710;2023-05-01T09:02:50;-14922.56;;;-144.67;100.00
21877;BME280;11103;43.788;23.710;2023-05-01T09:05:17;-14922.56;;;-144.67;100.00
21877;BME280;11103;43.788;23.710;2023-05-01T09:07:44;-14922.56;;;-144.67;100.00
21877;BME280;11103;43.788;23.710;2023-05-01T09:10:12;-14922.56;;;-144.67;100.00
21877;BME280;11103;43.788;23.710;2023-05-01T09:12:39;-14922.56;;;-144.67;100.00
21877;BME280;11103;43.788;23.710;2023-05-01T09:15:06;-14922.56;;;-144.67;100.00
21877;BME280;11103;43.788;23.710;2023-05-01T09:17:32;-14922.56;;;-144.67;100.00
21877;BME280;11103;43.788;23.710;2023-05-01T09:20:00;-14922.56;;;-144.67;100.00
21877;BME280;11103;43.788;23.710;2023-05-01T09:22:26;-14922.56;;;-144.67;100.00
21877;BME280;11103;43.788;23.710;2023-05-01T09:24:54;-14922.56;;;-144.67;100.00
21877;BME280;11103;43.788;23.710;2023-05-01T09:27:20;-14922.56;;;-144.67;100.00
21877;BME280;11103;43.788;23.710;2023-05-01T09:29:46;-14922.56;;;-144.67;100.00
21877;BME280;11103;43.788;23.710;2023-05-01T09:34:47;-14922.56;;;-144.67;100.00
21877;BME280;11103;43.788;23.710;2023-05-01T09:37:30;-14922.56;;;-144.67;100.00
21877;BME280;11103;43.788;23.710;2023-05-01T09:40:02;-14922.56;;;-144.67;100.00
21877;BME280;11103;43.788;23.710;2023-05-01T09:42:29;-14922.56;;;-144.67;100.00
21877;BME280;11103;43.788;23.710;2023-05-01T09:44:57;-14922.56;;;-144.67;100.00
21877;BME280;11103;43.788;23.710;2023-05-01T09:47:23;-14922.56;;;-144.67;100.00
21877;BME280;11103;43.788;23.710;2023-05-01T09:49:48;-14922.56;;;-144.67;100.00
21877;BME280;11103;43.788;23.710;2023-05-01T09:52:14;-14921.13;;;-144.67;100.00
21877;BME280;11103;43.788;23.710;2023-05-01T09:54:41;-14922.56;;;-144.67;100.00
21877;BME280;11103;43.788;23.710;2023-05-01T09:57:07;-14675.47;;;-144.67;100.00
21877;BME280;11103;43.788;23.710;2023-05-01T09:59:32;-8036.03;;;-144.67;100.00
21877;BME280;11103;43.788;23.710;2023-05-01T10:01:59;-10250.69;;;-144.67;100.00
21877;BME280;11103;43.788;23.710;2023-05-01T10:04:32;-14429.81;;;-144.67;100.00
21877;BME280;11103;43.788;23.710;2023-05-01T10:07:09;-12955.44;;;-144.67;100.00
21877;BME280;11103;43.788;23.710;2023-05-01T10:09:35;-12955.44;;;-144.67;100.00
21877;BME280;11103;43.788;23.710;2023-05-01T10:12:01;-9020.50;;;-144.67;100.00
21877;BME280;11103;43.788;23.710;2023-05-01T10:14:27;-13938.44;;;-144.67;100.00
21877;BME280;11103;43.788;23.710;2023-05-01T10:16:53;-14429.81;;;-144.67;100.00
21877;BME280;11103;43.788;23.710;2023-05-01T10:19:22;-11972.16;;;-144.67;100.00
21877;BME280;11103;43.788;23.710;2023-05-01T10:21:48;-10742.63;;;-144.67;100.00
21877;BME280;11103;43.788;23.710;2023-05-01T10:24:14;-2369.50;;;-144.67;100.00
21877;BME280;11103;43.788;23.710;2023-05-01T10:26:41;2318.94;;;-144.67;100.00
21877;BME280;11103;43.788;23.710;2023-05-01T10:29:07;-2616.09;;;-144.67;100.00
21877;BME280;11103;43.788;23.710;2023-05-01T10:31:33;7261.38;;;-144.67;100.00
21877;BME280;11103;43.788;23.710;2023-05-01T10:34:00;344.03;;;-144.67;100.00
21877;BME280;11103;43.788;23.710;2023-05-01T10:36:31;590.84;;;-144.67;100.00
21877;BME280;11103;43.788;23.710;2023-05-01T10:38:58;-3602.19;;;-144.67;100.00
21877;BME280;11103;43.788;23.710;2023-05-01T10:44:31;22381.72;;;-144.67;100.00
21877;BME280;11103;43.788;23.710;2023-05-01T10:46:58;25115.69;;;-144.67;100.00
21877;BME280;11103;43.788;23.710;2023-05-01T10:49:23;26110.44;;;-144.67;100.00
21877;BME280;11103;43.788;23.710;2023-05-01T10:51:59;30092.31;;;-144.67;100.00
21877;BME280;11103;43.788;23.710;2023-05-01T10:54:31;48570.38;;;-144.67;94.13
21877;BME280;11103;43.788;23.710;2023-05-01T10:56:58;59605.56;;;-144.67;92.30
21877;BME280;11103;43.788;23.710;2023-05-01T10:59:26;46567.84;;;-144.67;95.34
21877;BME280;11103;43.788;23.710;2023-05-01T11:01:51;38070.34;;;-144.67;97.79
21877;BME280;11103;43.788;23.710;2023-05-01T11:12:06;52829.72;;;-144.67;93.39
21877;BME280;11103;43.788;23.710;2023-05-01T11:20:03;42816.31;;;-144.67;96.40
21877;BME280;11103;43.788;23.710;2023-05-01T11:22:30;60108.00;;;-144.67;91.96
21877;BME280;11103;43.788;23.710;2023-05-01T11:24:56;58600.88;;;-144.67;92.68
21877;BME280;11103;43.788;23.710;2023-05-01T11:27:21;85226.50;;;-144.67;82.28
21877;BME280;11103;43.788;23.710;2023-05-01T11:29:48;84803.38;;;-144.67;83.44
21877;BME280;11103;43.788;23.710;2023-05-01T11:32:16;85974.00;;;-144.67;79.07
21877;BME280;11103;43.788;23.710;2023-05-01T11:34:43;85867.19;;;-144.67;79.83
21877;BME280;11103;43.788;23.710;2023-05-01T11:37:08;85588.38;;;-144.67;81.40
21877;BME280;11103;43.788;23.710;2023-05-01T11:39:34;85726.78;;;-144.67;73.54
21877;BME280;11103;43.788;23.710;2023-05-01T11:42:09;85736.69;;;-144.67;72.86
21877;BME280;11103;43.788;23.710;2023-05-01T11:44:34;85716.91;;;-144.67;72.73
21877;BME280;11103;43.788;23.710;2023-05-01T11:47:00;85736.69;;;-144.67;73.10
21877;BME280;11103;43.788;23.710;2023-05-01T11:49:27;85843.47;;;-144.67;75.99
21877;BME280;11103;43.788;23.710;2023-05-01T11:51:56;85635.81;;;-144.67;72.25
21877;BME280;11103;43.788;23.710;2023-05-01T11:54:22;85681.31;;;-144.67;74.00
21877;BME280;11103;43.788;23.710;2023-05-01T11:56:56;85780.19;;;-144.67;75.16
21877;BME280;11103;43.788;23.710;2023-05-01T11:59:24;85550.78;;;-144.67;71.27
21877;BME280;11103;43.788;23.710;2023-05-01T12:01:51;85495.41;;;-144.67;70.72
21877;BME280;11103;43.788;23.710;2023-05-01T12:04:25;85685.25;;;-144.67;73.89
21877;BME280;11103;43.788;23.710;2023-05-01T12:06:51;85386.66;;;-144.67;70.13
21877;BME280;11103;43.788;23.710;2023-05-01T12:09:35;85329.31;;;-144.67;69.25
21877;BME280;11103;43.788;23.710;2023-05-01T12:12:00;85224.53;;;-144.67;68.24
21877;BME280;11103;43.788;23.710;2023-05-01T12:14:27;84925.97;;;-144.67;63.82
21877;BME280;11103;43.788;23.710;2023-05-01T12:16:53;84831.06;;;-144.67;62.44
21877;BME280;11103;43.788;23.710;2023-05-01T12:19:18;85082.16;;;-144.67;66.53
21877;BME280;11103;43.788;23.710;2023-05-01T12:21:43;84813.28;;;-144.67;63.72
21877;BME280;11103;43.788;23.710;2023-05-01T12:24:14;84831.06;;;-144.67;63.70
21877;BME280;11103;43.788;23.710;2023-05-01T12:26:41;84665.00;;;-144.67;61.71
21877;BME280;11103;43.788;23.710;2023-05-01T12:29:07;84562.19;;;-144.67;60.96
21877;BME280;11103;43.788;23.710;2023-05-01T12:31:36;84372.41;;;-144.67;59.18
21877;BME280;11103;43.788;23.710;2023-05-01T12:36:30;84755.94;;;-144.67;65.62
21877;BME280;11103;43.788;23.710;2023-05-01T12:39:01;84210.31;;;-144.67;56.26
21877;BME280;11103;43.788;23.710;2023-05-01T12:41:40;84277.53;;;-144.67;57.82
21877;BME280;11103;43.788;23.710;2023-05-01T12:44:23;84247.88;;;-144.67;57.83
21877;BME280;11103;43.788;23.710;2023-05-01T12:46:58;84162.88;;;-144.67;56.18
21877;BME280;11103;43.788;23.710;2023-05-01T12:49:24;84062.06;;;-144.67;54.23
21877;BME280;11103;43.788;23.710;2023-05-01T12:51:54;83996.84;;;-144.67;52.41
21877;BME280;11103;43.788;23.710;2023-05-01T12:54:25;84014.63;;;-144.67;50.36
21877;BME280;11103;43.788;23.710;2023-05-01T12:56:51;84034.38;;;-144.67;52.90